sensor_id;sensor_type;location;lat;lon;timestamp;pressure;altitude;pressure_sealevel;temperature;humidity
67738;BME280;54534;43.612;1.572;2023-03-15T00:01:07;99462.47;;;19.10;51.18
67738;BME280;54534;43.612;1.572;2023-03-15T00:03:34;99454.56;;;19.08;51.06
67738;BME280;54534;43.612;1.572;2023-03-15T00:06:02;99453.75;;;19.08;51.30
67738;BME280;54534;43.612;1.572;2023-03-15T00:08:28;99445.84;;;19.06;51.36
67738;BME280;54534;43.612;1.572;2023-03-15T00:10:53;99449.50;;;19.05;51.13
67738;BME280;54534;43.612;1.572;2023-03-15T00:13:19;99442.47;;;19.04;51.01
67738;BME280;54534;43.612;1.572;2023-03-15T00:15:46;99441.59;;;19.04;51.04
67738;BME280;54534;43.612;1.572;2023-03-15T00:18:12;99440.03;;;19.01;50.69
67738;BME280;54534;43.612;1.572;2023-03-15T00:20:37;99448.88;;;19.01;50.97
67738;BME280;54534;43.612;1.572;2023-03-15T00:23:03;99437.38;;;19.01;51.03
67738;BME280;54534;43.612;1.572;2023-03-15T00:25:28;99445.50;;;18.99;50.90
67738;BME280;54534;43.612;1.572;2023-03-15T00:27:54;99430.59;;;18.97;50.96
67738;BME280;54534;43.612;1.572;2023-03-15T00:30:19;99432.41;;;18.96;50.80
67738;BME280;54534;43.612;1.572;2023-03-15T00:32:44;99428.88;;;18.96;50.87
67738;BME280;54534;43.612;1.572;2023-03-15T00:35:13;99427.94;;;18.97;50.90
67738;BME280;54534;43.612;1.572;2023-03-15T00:37:38;99426.34;;;18.94;50.71
67738;BME280;54534;43.612;1.572;2023-03-15T00:40:05;99422.84;;;18.94;50.60
67738;BME280;54534;43.612;1.572;2023-03-15T00:42:31;99420.31;;;18.92;50.73
67738;BME280;54534;43.612;1.572;2023-03-15T00:44:58;99419.44;;;18.92;50.88
67738;BME280;54534;43.612;1.572;2023-03-15T00:47:25;99419.56;;;18.90;50.40
67738;BME280;54534;43.612;1.572;2023-03-15T00:49:50;99412.56;;;18.89;50.42
67738;BME280;54534;43.612;1.572;2023-03-15T00:52:17;99411.69;;;18.88;50.46
67738;BME280;54534;43.612;1.572;2023-03-15T00:54:48;99416.31;;;18.86;50.66
67738;BME280;54534;43.612;1.572;2023-03-15T00:57:16;99411.09;;;18.85;50.56
67738;BME280;54534;43.612;1.572;2023-03-15T00:59:41;99413.88;;;18.83;50.74
67738;BME280;54534;43.612;1.572;2023-03-15T01:02:09;99414.72;;;18.84;50.29
67738;BME280;54534;43.612;1.572;2023-03-15T01:04:35;99406.75;;;18.84;50.25
67738;BME280;54534;43.612;1.572;2023-03-15T01:07:01;99411.34;;;18.82;50.62
67738;BME280;54534;43.612;1.572;2023-03-15T01:09:26;99406.00;;;18.82;50.42
67738;BME280;54534;43.612;1.572;2023-03-15T01:11:52;99403.47;;;18.80;50.48
67738;BME280;54534;43.612;1.572;2023-03-15T01:14:17;99405.41;;;18.78;50.60
67738;BME280;54534;43.612;1.572;2023-03-15T01:16:44;99412.44;;;18.79;50.58
67738;BME280;54534;43.612;1.572;2023-03-15T01:19:10;99398.38;;;18.77;50.16
67738;BME280;54534;43.612;1.572;2023-03-15T01:21:36;99396.69;;;18.76;50.12
67738;BME280;54534;43.612;1.572;2023-03-15T01:24:01;99394.13;;;18.74;50.48
67738;BME280;54534;43.612;1.572;2023-03-15T01:26:27;99391.47;;;18.74;50.22
67738;BME280;54534;43.612;1.572;2023-03-15T01:28:52;99392.44;;;18.73;50.26
67738;BME280;54534;43.612;1.572;2023-03-15T01:31:24;99389.88;;;18.72;50.27
67738;BME280;54534;43.612;1.572;2023-03-15T01:33:50;99392.69;;;18.70;50.06
67738;BME280;54534;43.612;1.572;2023-03-15T01:36:15;99384.69;;;18.70;49.98
67738;BME280;54534;43.612;1.572;2023-03-15T01:38:41;99390.97;;;18.69;50.07
67738;BME280;54534;43.612;1.572;2023-03-15T01:41:07;99382.25;;;18.67;50.13
67738;BME280;54534;43.612;1.572;2023-03-15T01:43:33;99391.09;;;18.67;50.27
67738;BME280;54534;43.612;1.572;2023-03-15T01:46:13;99395.56;;;18.67;50.27
67738;BME280;54534;43.612;1.572;2023-03-15T01:54:03;99379.97;;;18.62;49.79
67738;BME280;54534;43.612;1.572;2023-03-15T01:56:32;99381.78;;;18.62;49.83
67738;BME280;54534;43.612;1.572;2023-03-15T01:59:00;99379.09;;;18.62;50.00
67738;BME280;54534;43.612;1.572;2023-03-15T02:01:27;99367.75;;;18.60;49.88
67738;BME280;54534;43.612;1.572;2023-03-15T02:03:59;99359.75;;;18.60;49.81
67738;BME280;54534;43.612;1.572;2023-03-15T02:06:27;99358.91;;;18.59;50.16
67738;BME280;54534;43.612;1.572;2023-03-15T02:08:58;99355.38;;;18.59;50.00
67738;BME280;54534;43.612;1.572;2023-03-15T02:11:26;99354.66;;;18.56;50.06
67738;BME280;54534;43.612;1.572;2023-03-15T02:13:53;99342.28;;;18.55;49.98
67738;BME280;54534;43.612;1.572;2023-03-15T02:16:20;99345.94;;;18.54;49.97
67738;BME280;54534;43.612;1.572;2023-03-15T02:18:47;99340.63;;;18.54;49.70
67738;BME280;54534;43.612;1.572;2023-03-15T02:24:31;99337.25;;;18.52;49.68
67738;BME280;54534;43.612;1.572;2023-03-15T02:26:58;99334.69;;;18.51;49.59
67738;BME280;54534;43.612;1.572;2023-03-15T02:29:25;99335.53;;;18.51;50.03
67738;BME280;54534;43.612;1.572;2023-03-15T02:31:52;99336.63;;;18.49;49.74
67738;BME280;54534;43.612;1.572;2023-03-15T02:34:18;99338.44;;;18.48;49.73
67738;BME280;54534;43.612;1.572;2023-03-15T02:36:43;99341.09;;;18.48;49.96
67738;BME280;54534;43.612;1.572;2023-03-15T02:39:17;99340.22;;;18.48;49.64
67738;BME280;54534;43.612;1.572;2023-03-15T02:41:47;99333.22;;;18.47;49.71
67738;BME280;54534;43.612;1.572;2023-03-15T02:46:51;99338.66;;;18.45;49.83
67738;BME280;54534;43.612;1.572;2023-03-15T02:49:20;99343.16;;;18.44;49.60
67738;BME280;54534;43.612;1.572;2023-03-15T02:51:46;99340.59;;;18.43;49.42
67738;BME280;54534;43.612;1.572;2023-03-15T02:54:11;99345.94;;;18.43;49.56
67738;BME280;54534;43.612;1.572;2023-03-15T02:56:36;99342.41;;;18.42;49.44
67738;BME280;54534;43.612;1.572;2023-03-15T02:59:02;99345.19;;;18.41;49.79
67738;BME280;54534;43.612;1.572;2023-03-15T03:01:27;99343.41;;;18.41;49.42
67738;BME280;54534;43.612;1.572;2023-03-15T03:03:53;99341.69;;;18.40;49.46
67738;BME280;54534;43.612;1.572;2023-03-15T03:06:18;99337.34;;;18.39;49.70
67738;BME280;54534;43.612;1.572;2023-03-15T03:08:44;99345.44;;;18.38;49.45
67738;BME280;54534;43.612;1.572;2023-03-15T03:11:12;99332.13;;;18.38;49.49
67738;BME280;54534;43.612;1.572;2023-03-15T03:13:38;99333.94;;;18.37;49.29
67738;BME280;54534;43.612;1.572;2023-03-15T03:16:04;99333.06;;;18.37;49.19
67738;BME280;54534;43.612;1.572;2023-03-15T03:18:30;99326.06;;;18.36;49.21
67738;BME280;54534;43.612;1.572;2023-03-15T03:21:01;99321.72;;;18.34;49.46
67738;BME280;54534;43.612;1.572;2023-03-15T03:23:27;99316.38;;;18.34;49.50
67738;BME280;54534;43.612;1.572;2023-03-15T03:25:54;99312.88;;;18.34;49.70
67738;BME280;54534;43.612;1.572;2023-03-15T03:28:25;99310.34;;;18.32;49.62
67738;BME280;54534;43.612;1.572;2023-03-15T03:30:52;99315.66;;;18.32;49.04
67738;BME280;54534;43.612;1.572;2023-03-15T03:33:18;99309.63;;;18.30;49.24
67738;BME280;54534;43.612;1.572;2023-03-15T03:35:43;99313.13;;;18.31;49.31
67738;BME280;54534;43.612;1.572;2023-03-15T03:38:10;99315.78;;;18.31;49.18
67738;BME280;54534;43.612;1.572;2023-03-15T03:40:37;99315.03;;;18.29;49.70
67738;BME280;54534;43.612;1.572;2023-03-15T03:43:03;99321.22;;;18.29;49.20
67738;BME280;54534;43.612;1.572;2023-03-15T03:45:28;99325.69;;;18.29;49.04
67738;BME280;54534;43.612;1.572;2023-03-15T03:47:54;99333.81;;;18.27;49.11
67738;BME280;54534;43.612;1.572;2023-03-15T03:50:19;99335.63;;;18.27;49.31
67738;BME280;54534;43.612;1.572;2023-03-15T03:52:45;99325.94;;;18.26;48.99
67738;BME280;54534;43.612;1.572;2023-03-15T03:55:10;99333.94;;;18.26;49.21
67738;BME280;54534;43.612;1.572;2023-03-15T03:57:40;99334.88;;;18.25;49.44
67738;BME280;54534;43.612;1.572;2023-03-15T04:00:07;99331.38;;;18.24;49.06
67738;BME280;54534;43.612;1.572;2023-03-15T04:02:35;99338.50;;;18.23;48.73
67738;BME280;54534;43.612;1.572;2023-03-15T04:05:00;99346.63;;;18.22;49.50
67738;BME280;54534;43.612;1.572;2023-03-15T04:07:26;99344.09;;;18.20;49.16
67738;BME280;54534;43.612;1.572;2023-03-15T04:09:52;99352.91;;;18.21;49.02
67738;BME280;54534;43.612;1.572;2023-03-15T04:12:17;99358.22;;;18.21;49.42
67738;BME280;54534;43.612;1.572;2023-03-15T04:14:42;99361.84;;;18.20;49.29
67738;BME280;54534;43.612;1.572;2023-03-15T04:17:08;99360.13;;;18.19;49.32
67738;BME280;54534;43.612;1.572;2023-03-15T04:19:34;99348.63;;;18.18;49.33
67738;BME280;54534;43.612;1.572;2023-03-15T04:21:59;99351.28;;;18.18;48.89
67738;BME280;54534;43.612;1.572;2023-03-15T04:24:34;99355.78;;;18.18;48.97
67738;BME280;54534;43.612;1.572;2023-03-15T04:27:00;99355.78;;;18.18;48.95
67738;BME280;54534;43.612;1.572;2023-03-15T04:29:26;99357.59;;;18.17;49.09
67738;BME280;54534;43.612;1.572;2023-03-15T04:31:51;99347.91;;;18.16;49.36
67738;BME280;54534;43.612;1.572;2023-03-15T04:34:16;99362.19;;;18.15;48.97
67738;BME280;54534;43.612;1.572;2023-03-15T04:36:42;99359.53;;;18.15;49.43
67738;BME280;54534;43.612;1.572;2023-03-15T04:39:07;99358.69;;;18.15;49.06
67738;BME280;54534;43.612;1.572;2023-03-15T04:41:34;99356.13;;;18.13;49.25
67738;BME280;54534;43.612;1.572;2023-03-15T04:44:01;99359.63;;;18.14;49.16
67738;BME280;54534;43.612;1.572;2023-03-15T04:46:28;99356.97;;;18.14;49.28
67738;BME280;54534;43.612;1.572;2023-03-15T04:48:53;99357.94;;;18.12;49.18
67738;BME280;54534;43.612;1.572;2023-03-15T04:51:19;99354.44;;;18.12;48.92
67738;BME280;54534;43.612;1.572;2023-03-15T04:53:44;99364.22;;;18.11;49.13
67738;BME280;54534;43.612;1.572;2023-03-15T04:56:10;99357.19;;;18.10;49.34
67738;BME280;54534;43.612;1.572;2023-03-15T04:58:35;99359.84;;;18.10;48.92
67738;BME280;54534;43.612;1.572;2023-03-15T05:01:01;99375.00;;;18.10;48.81
67738;BME280;54534;43.612;1.572;2023-03-15T05:03:26;99367.13;;;18.08;48.89
67738;BME280;54534;43.612;1.572;2023-03-15T05:05:51;99367.97;;;18.09;48.78
67738;BME280;54534;43.612;1.572;2023-03-15T05:08:17;99380.41;;;18.08;48.87
67738;BME280;54534;43.612;1.572;2023-03-15T05:10:42;99379.56;;;18.08;48.87
67738;BME280;54534;43.612;1.572;2023-03-15T05:13:08;99381.41;;;18.07;48.63
67738;BME280;54534;43.612;1.572;2023-03-15T05:15:33;99379.69;;;18.06;48.78
67738;BME280;54534;43.612;1.572;2023-03-15T05:17:59;99379.69;;;18.06;49.05
67738;BME280;54534;43.612;1.572;2023-03-15T05:20:24;99382.34;;;18.06;49.15
67738;BME280;54534;43.612;1.572;2023-03-15T05:22:50;99382.34;;;18.06;48.78
67738;BME280;54534;43.612;1.572;2023-03-15T05:25:17;99385.97;;;18.05;48.83
67738;BME280;54534;43.612;1.572;2023-03-15T05:27:43;99380.78;;;18.04;48.76
67738;BME280;54534;43.612;1.572;2023-03-15T05:30:11;99388.75;;;18.04;49.12
67738;BME280;54534;43.612;1.572;2023-03-15T05:32:36;99392.28;;;18.04;48.93
67738;BME280;54534;43.612;1.572;2023-03-15T05:35:05;99386.09;;;18.04;48.68
67738;BME280;54534;43.612;1.572;2023-03-15T05:37:31;99394.19;;;18.02;48.86
67738;BME280;54534;43.612;1.572;2023-03-15T05:39:58;99398.53;;;18.03;48.88
67738;BME280;54534;43.612;1.572;2023-03-15T05:42:23;99398.66;;;18.01;49.01
67738;BME280;54534;43.612;1.572;2023-03-15T05:44:53;99396.88;;;18.02;48.72
67738;BME280;54534;43.612;1.572;2023-03-15T05:47:19;99391.63;;;18.00;48.99
67738;BME280;54534;43.612;1.572;2023-03-15T05:49:45;99390.78;;;18.00;48.97
67738;BME280;54534;43.612;1.572;2023-03-15T05:52:10;99393.44;;;18.00;48.96
67738;BME280;54534;43.612;1.572;2023-03-15T05:54:36;99398.78;;;18.00;48.68
67738;BME280;54534;43.612;1.572;2023-03-15T05:57:02;99395.25;;;17.99;48.73
67738;BME280;54534;43.612;1.572;2023-03-15T05:59:27;99400.56;;;17.99;48.81
67738;BME280;54534;43.612;1.572;2023-03-15T06:01:52;99404.22;;;17.98;49.04
67738;BME280;54534;43.612;1.572;2023-03-15T06:04:18;99403.34;;;17.98;48.99
67738;BME280;54534;43.612;1.572;2023-03-15T06:06:43;99412.28;;;17.97;48.61
67738;BME280;54534;43.612;1.572;2023-03-15T06:09:09;99414.13;;;17.96;48.79
67738;BME280;54534;43.612;1.572;2023-03-15T06:11:34;99411.34;;;17.98;48.74
67738;BME280;54534;43.612;1.572;2023-03-15T06:14:00;99414.94;;;17.97;48.70
67738;BME280;54534;43.612;1.572;2023-03-15T06:16:25;99414.94;;;17.97;48.69
67738;BME280;54534;43.612;1.572;2023-03-15T06:18:51;99416.78;;;17.96;48.81
67738;BME280;54534;43.612;1.572;2023-03-15T06:21:16;99417.75;;;17.95;48.83
67738;BME280;54534;43.612;1.572;2023-03-15T06:23:42;99421.25;;;17.96;48.96
67738;BME280;54534;43.612;1.572;2023-03-15T06:26:07;99429.25;;;17.96;48.81
67738;BME280;54534;43.612;1.572;2023-03-15T06:28:33;99430.19;;;17.95;49.03
67738;BME280;54534;43.612;1.572;2023-03-15T06:31:05;99435.50;;;17.95;48.92
67738;BME280;54534;43.612;1.572;2023-03-15T06:33:31;99432.00;;;17.94;49.13
67738;BME280;54534;43.612;1.572;2023-03-15T06:35:56;99428.50;;;17.94;49.10
67738;BME280;54534;43.612;1.572;2023-03-15T06:38:22;99435.63;;;17.93;48.94
67738;BME280;54534;43.612;1.572;2023-03-15T06:40:47;99433.84;;;17.94;48.86
67738;BME280;54534;43.612;1.572;2023-03-15T06:43:12;99436.50;;;17.94;48.75
67738;BME280;54534;43.612;1.572;2023-03-15T06:45:44;99436.59;;;17.92;48.90
67738;BME280;54534;43.612;1.572;2023-03-15T06:48:11;99437.44;;;17.93;49.32
67738;BME280;54534;43.612;1.572;2023-03-15T06:50:37;99448.94;;;17.93;49.09
67738;BME280;54534;43.612;1.572;2023-03-15T06:53:02;99444.56;;;17.92;49.07
67738;BME280;54534;43.612;1.572;2023-03-15T06:55:28;99441.91;;;17.92;48.93
67738;BME280;54534;43.612;1.572;2023-03-15T06:57:53;99445.63;;;17.89;48.90
67738;BME280;54534;43.612;1.572;2023-03-15T07:00:19;99448.31;;;17.89;48.95
67738;BME280;54534;43.612;1.572;2023-03-15T07:02:44;99446.38;;;17.92;49.38
67738;BME280;54534;43.612;1.572;2023-03-15T07:05:09;99454.47;;;17.90;49.41
67738;BME280;54534;43.612;1.572;2023-03-15T07:07:35;99450.00;;;17.90;49.17
67738;BME280;54534;43.612;1.572;2023-03-15T07:10:01;99446.38;;;17.92;49.33
67738;BME280;54534;43.612;1.572;2023-03-15T07:12:26;99453.41;;;17.93;49.69
67738;BME280;54534;43.612;1.572;2023-03-15T07:14:51;99452.44;;;17.94;50.03
67738;BME280;54534;43.612;1.572;2023-03-15T07:17:17;99450.63;;;17.94;50.18
67738;BME280;54534;43.612;1.572;2023-03-15T07:19:42;99443.41;;;17.96;50.81
67738;BME280;54534;43.612;1.572;2023-03-15T07:22:08;99438.06;;;17.96;50.93
67738;BME280;54534;43.612;1.572;2023-03-15T07:24:33;99436.25;;;17.97;50.83
67738;BME280;54534;43.612;1.572;2023-03-15T07:26:58;99431.78;;;17.97;50.92
67738;BME280;54534;43.612;1.572;2023-03-15T07:29:24;99431.78;;;17.97;50.62
67738;BME280;54534;43.612;1.572;2023-03-15T07:31:50;99418.47;;;17.97;50.86
67738;BME280;54534;43.612;1.572;2023-03-15T07:34:16;99426.44;;;17.97;50.77
67738;BME280;54534;43.612;1.572;2023-03-15T07:36:41;99432.63;;;17.98;50.53
67738;BME280;54534;43.612;1.572;2023-03-15T07:39:06;99433.47;;;17.98;50.62
67738;BME280;54534;43.612;1.572;2023-03-15T07:41:32;99436.13;;;17.98;50.38
67738;BME280;54534;43.612;1.572;2023-03-15T07:43:57;99442.41;;;17.97;50.23
67738;BME280;54534;43.612;1.572;2023-03-15T07:46:23;99440.59;;;17.98;50.11
67738;BME280;54534;43.612;1.572;2023-03-15T07:48:48;99440.59;;;17.98;50.29
67738;BME280;54534;43.612;1.572;2023-03-15T07:51:13;99438.06;;;17.96;50.12
67738;BME280;54534;43.612;1.572;2023-03-15T07:53:39;99440.72;;;17.96;50.42
67738;BME280;54534;43.612;1.572;2023-03-15T07:56:04;99443.41;;;17.96;50.19
67738;BME280;54534;43.612;1.572;2023-03-15T07:58:30;99443.41;;;17.96;50.39
67738;BME280;54534;43.612;1.572;2023-03-15T08:00:56;99446.88;;;17.97;50.49
67738;BME280;54534;43.612;1.572;2023-03-15T08:03:23;99452.19;;;17.97;50.54
67738;BME280;54534;43.612;1.572;2023-03-15T08:05:49;99458.28;;;17.99;50.44
67738;BME280;54534;43.612;1.572;2023-03-15T08:08:15;99464.44;;;17.99;50.43
67738;BME280;54534;43.612;1.572;2023-03-15T08:10:40;99474.97;;;18.01;50.46
67738;BME280;54534;43.612;1.572;2023-03-15T08:13:07;99472.31;;;18.01;50.44
67738;BME280;54534;43.612;1.572;2023-03-15T08:15:32;99470.38;;;18.03;50.17
67738;BME280;54534;43.612;1.572;2023-03-15T08:17:58;99473.03;;;18.03;50.45
67738;BME280;54534;43.612;1.572;2023-03-15T08:20:24;99472.09;;;18.04;50.55
67738;BME280;54534;43.612;1.572;2023-03-15T08:22:50;99479.09;;;18.05;50.06
67738;BME280;54534;43.612;1.572;2023-03-15T08:25:18;99497.50;;;18.08;50.07
67738;BME280;54534;43.612;1.572;2023-03-15T08:27:44;99493.88;;;18.09;49.93
67738;BME280;54534;43.612;1.572;2023-03-15T08:30:11;99490.50;;;18.07;49.82
67738;BME280;54534;43.612;1.572;2023-03-15T08:32:38;99504.31;;;18.12;49.82
67738;BME280;54534;43.612;1.572;2023-03-15T08:35:05;99508.66;;;18.14;50.22
67738;BME280;54534;43.612;1.572;2023-03-15T08:37:31;99502.38;;;18.15;50.18
67738;BME280;54534;43.612;1.572;2023-03-15T08:39:56;99498.72;;;18.16;50.19
67738;BME280;54534;43.612;1.572;2023-03-15T08:42:27;99507.47;;;18.18;50.13
67738;BME280;54534;43.612;1.572;2023-03-15T08:44:53;99502.16;;;18.18;49.72
67738;BME280;54534;43.612;1.572;2023-03-15T08:47:18;99513.53;;;18.20;49.78
67738;BME280;54534;43.612;1.572;2023-03-15T08:49:44;99509.91;;;18.21;49.93
67738;BME280;54534;43.612;1.572;2023-03-15T08:52:09;99511.63;;;18.22;49.72
67738;BME280;54534;43.612;1.572;2023-03-15T08:54:35;99514.16;;;18.23;49.59
67738;BME280;54534;43.612;1.572;2023-03-15T08:57:00;99501.63;;;18.26;49.66
67738;BME280;54534;43.612;1.572;2023-03-15T08:59:25;99506.94;;;18.26;49.84
67738;BME280;54534;43.612;1.572;2023-03-15T09:01:51;99505.88;;;18.28;49.77
67738;BME280;54534;43.612;1.572;2023-03-15T09:04:17;99501.34;;;18.29;49.65
67738;BME280;54534;43.612;1.572;2023-03-15T09:06:42;99507.53;;;18.29;49.54
67738;BME280;54534;43.612;1.572;2023-03-15T09:09:08;99511.91;;;18.30;49.87
67738;BME280;54534;43.612;1.572;2023-03-15T09:11:33;99504.66;;;18.32;49.41
67738;BME280;54534;43.612;1.572;2023-03-15T09:13:59;99507.31;;;18.32;49.54
67738;BME280;54534;43.612;1.572;2023-03-15T09:16:24;99508.16;;;18.33;49.76
67738;BME280;54534;43.612;1.572;2023-03-15T09:18:50;99509.84;;;18.34;49.48
67738;BME280;54534;43.612;1.572;2023-03-15T09:21:15;99508.03;;;18.34;49.35
67738;BME280;54534;43.612;1.572;2023-03-15T09:23:41;99518.59;;;18.36;49.35
67738;BME280;54534;43.612;1.572;2023-03-15T09:26:06;99517.63;;;18.37;49.45
67738;BME280;54534;43.612;1.572;2023-03-15T09:28:31;99522.00;;;18.38;49.78
67738;BME280;54534;43.612;1.572;2023-03-15T09:30:57;99521.13;;;18.38;49.54
67738;BME280;54534;43.612;1.572;2023-03-15T09:33:22;99513.06;;;18.39;49.20
67738;BME280;54534;43.612;1.572;2023-03-15T09:35:51;99512.91;;;18.41;49.28
67738;BME280;54534;43.612;1.572;2023-03-15T09:38:17;99527.94;;;18.42;49.33
67738;BME280;54534;43.612;1.572;2023-03-15T09:40:44;99527.94;;;18.42;49.25
67738;BME280;54534;43.612;1.572;2023-03-15T09:51:09;99539.19;;;18.45;49.30
67738;BME280;54534;43.612;1.572;2023-03-15T09:56:37;99539.09;;;18.47;49.21
67738;BME280;54534;43.612;1.572;2023-03-15T09:59:04;99531.13;;;18.47;49.11
67738;BME280;54534;43.612;1.572;2023-03-15T10:01:35;99536.44;;;18.47;49.54
67738;BME280;54534;43.612;1.572;2023-03-15T10:07:13;99546.97;;;18.49;49.70
67738;BME280;54534;43.612;1.572;2023-03-15T10:09:39;99539.81;;;18.49;49.34
67738;BME280;54534;43.612;1.572;2023-03-15T10:12:10;99541.50;;;18.50;49.29
67738;BME280;54534;43.612;1.572;2023-03-15T10:17:14;99545.75;;;18.53;49.16
67738;BME280;54534;43.612;1.572;2023-03-15T10:19:48;99555.59;;;18.52;49.09
67738;BME280;54534;43.612;1.572;2023-03-15T10:22:32;99557.25;;;18.53;49.30
67738;BME280;54534;43.612;1.572;2023-03-15T10:27:46;99563.44;;;18.54;49.22
67738;BME280;54534;43.612;1.572;2023-03-15T10:30:20;99564.28;;;18.54;49.33
67738;BME280;54534;43.612;1.572;2023-03-15T10:32:58;99562.50;;;18.55;48.94
67738;BME280;54534;43.612;1.572;2023-03-15T10:35:24;99559.81;;;18.55;49.24
67738;BME280;54534;43.612;1.572;2023-03-15T10:37:50;99569.50;;;18.56;49.16
67738;BME280;54534;43.612;1.572;2023-03-15T10:40:40;99573.75;;;18.59;49.07
67738;BME280;54534;43.612;1.572;2023-03-15T10:43:16;99579.78;;;18.61;48.75
67738;BME280;54534;43.612;1.572;2023-03-15T10:45:45;99558.50;;;18.61;48.91
67738;BME280;54534;43.612;1.572;2023-03-15T10:48:11;99563.81;;;18.61;48.96
67738;BME280;54534;43.612;1.572;2023-03-15T10:50:37;99554.88;;;18.62;48.87
67738;BME280;54534;43.612;1.572;2023-03-15T10:53:09;99557.41;;;18.63;49.11
67738;BME280;54534;43.612;1.572;2023-03-15T10:55:43;99560.94;;;18.64;48.92
67738;BME280;54534;43.612;1.572;2023-03-15T11:00:52;99536.88;;;18.65;48.65
67738;BME280;54534;43.612;1.572;2023-03-15T11:03:23;99539.53;;;18.65;48.70
67738;BME280;54534;43.612;1.572;2023-03-15T11:05:51;99540.34;;;18.66;48.72
67738;BME280;54534;43.612;1.572;2023-03-15T11:08:23;99536.72;;;18.67;48.98
67738;BME280;54534;43.612;1.572;2023-03-15T11:10:56;99533.94;;;18.68;48.76
67738;BME280;54534;43.612;1.572;2023-03-15T11:13:25;99532.25;;;18.67;48.90
67738;BME280;54534;43.612;1.572;2023-03-15T11:21:18;99524.13;;;18.69;48.76
67738;BME280;54534;43.612;1.572;2023-03-15T11:23:49;99515.19;;;18.70;48.76
67738;BME280;54534;43.612;1.572;2023-03-15T11:26:35;99516.06;;;18.71;48.69
67738;BME280;54534;43.612;1.572;2023-03-15T11:29:26;99500.06;;;18.71;49.00
67738;BME280;54534;43.612;1.572;2023-03-15T11:31:49;99511.56;;;18.71;48.73
67738;BME280;54534;43.612;1.572;2023-03-15T11:34:40;99509.66;;;18.73;48.67
67738;BME280;54534;43.612;1.572;2023-03-15T11:37:24;99514.13;;;18.73;49.04
67738;BME280;54534;43.612;1.572;2023-03-15T11:40:04;99502.47;;;18.74;49.00
67738;BME280;54534;43.612;1.572;2023-03-15T11:43:00;99494.38;;;18.75;48.81
67738;BME280;54534;43.612;1.572;2023-03-15T11:47:57;99495.09;;;18.77;48.92
67738;BME280;54534;43.612;1.572;2023-03-15T11:50:25;99500.44;;;18.77;48.92
67738;BME280;54534;43.612;1.572;2023-03-15T11:52:51;99475.50;;;18.78;48.71
67738;BME280;54534;43.612;1.572;2023-03-15T11:55:27;99484.22;;;18.81;48.91
67738;BME280;54534;43.612;1.572;2023-03-15T11:57:53;99486.75;;;18.82;49.10
67738;BME280;54534;43.612;1.572;2023-03-15T12:02:57;99486.66;;;18.84;49.35
67738;BME280;54534;43.612;1.572;2023-03-15T12:05:51;99491.00;;;18.85;48.97
67738;BME280;54534;43.612;1.572;2023-03-15T12:10:45;99476.84;;;18.84;49.17
67738;BME280;54534;43.612;1.572;2023-03-15T12:13:30;99478.44;;;18.87;49.00
67738;BME280;54534;43.612;1.572;2023-03-15T12:15:56;99476.59;;;18.87;49.17
67738;BME280;54534;43.612;1.572;2023-03-15T12:18:41;99471.16;;;18.89;49.26
67738;BME280;54534;43.612;1.572;2023-03-15T12:21:14;99468.50;;;18.89;49.13
67738;BME280;54534;43.612;1.572;2023-03-15T12:23:46;99464.75;;;18.92;49.26
67738;BME280;54534;43.612;1.572;2023-03-15T12:26:43;99465.59;;;18.92;49.12
67738;BME280;54534;43.612;1.572;2023-03-15T12:29:14;99466.44;;;18.93;48.84
67738;BME280;54534;43.612;1.572;2023-03-15T12:34:24;99467.28;;;18.93;48.97
67738;BME280;54534;43.612;1.572;2023-03-15T12:36:52;99459.28;;;18.93;49.19
67738;BME280;54534;43.612;1.572;2023-03-15T12:42:00;99446.69;;;18.95;48.78
67738;BME280;54534;43.612;1.572;2023-03-15T12:47:00;99434.13;;;18.97;48.68
67738;BME280;54534;43.612;1.572;2023-03-15T12:49:27;99428.78;;;18.97;48.54
67738;BME280;54534;43.612;1.572;2023-03-15T12:54:46;99422.38;;;19.00;48.85
67738;BME280;54534;43.612;1.572;2023-03-15T12:57:18;99422.47;;;18.98;48.71
67738;BME280;54534;43.612;1.572;2023-03-15T12:59:54;99420.44;;;19.02;48.66
67738;BME280;54534;43.612;1.572;2023-03-15T13:04:47;99414.00;;;19.05;49.17
67738;BME280;54534;43.612;1.572;2023-03-15T13:07:23;99400.44;;;19.08;49.61
67738;BME280;54534;43.612;1.572;2023-03-15T13:12:52;99385.88;;;19.12;49.10
67738;BME280;54534;43.612;1.572;2023-03-15T13:15:27;99388.41;;;19.14;49.40
67738;BME280;54534;43.612;1.572;2023-03-15T13:17:58;99378.59;;;19.14;49.31
67738;BME280;54534;43.612;1.572;2023-03-15T13:20:38;99386.50;;;19.16;49.18
67738;BME280;54534;43.612;1.572;2023-03-15T13:23:55;99383.69;;;19.17;49.21
67738;BME280;54534;43.612;1.572;2023-03-15T13:26:28;99373.03;;;19.17;49.13
67738;BME280;54534;43.612;1.572;2023-03-15T13:29:07;99378.28;;;19.19;49.31
67738;BME280;54534;43.612;1.572;2023-03-15T13:31:34;99374.78;;;19.18;49.39
67738;BME280;54534;43.612;1.572;2023-03-15T13:34:15;99371.13;;;19.19;49.17
67738;BME280;54534;43.612;1.572;2023-03-15T13:36:45;99364.97;;;19.19;48.92
67738;BME280;54534;43.612;1.572;2023-03-15T13:39:18;99360.34;;;19.21;49.06
67738;BME280;54534;43.612;1.572;2023-03-15T13:41:45;99365.53;;;19.22;48.90
67738;BME280;54534;43.612;1.572;2023-03-15T13:44:20;99346.03;;;19.22;48.71
67738;BME280;54534;43.612;1.572;2023-03-15T13:46:47;99337.22;;;19.21;48.79
67738;BME280;54534;43.612;1.572;2023-03-15T13:49:13;99338.91;;;19.22;48.68
67738;BME280;54534;43.612;1.572;2023-03-15T13:51:39;99345.06;;;19.23;48.92
67738;BME280;54534;43.612;1.572;2023-03-15T13:54:12;99337.09;;;19.23;48.77
67738;BME280;54534;43.612;1.572;2023-03-15T13:57:18;99334.28;;;19.25;48.69
67738;BME280;54534;43.612;1.572;2023-03-15T13:59:51;99334.28;;;19.25;48.43
67738;BME280;54534;43.612;1.572;2023-03-15T14:02:34;99324.47;;;19.25;48.44
67738;BME280;54534;43.612;1.572;2023-03-15T14:05:05;99325.47;;;19.24;48.54
67738;BME280;54534;43.612;1.572;2023-03-15T14:07:43;99332.47;;;19.25;48.27